createdAt,value
2018-09-27T00:00:52.574Z,99.90
2018-09-27T00:03:21.054Z,99.90
2018-09-27T00:05:49.512Z,99.90
2018-09-27T00:08:17.987Z,99.90
2018-09-27T00:10:46.459Z,99.90
2018-09-27T00:13:14.910Z,99.90
2018-09-27T00:15:43.381Z,99.90
2018-09-27T00:18:11.838Z,99.90
2018-09-27T00:20:40.346Z,99.90
2018-09-27T00:23:08.798Z,99.90
2018-09-27T00:25:37.282Z,99.90
2018-09-27T00:28:05.770Z,99.90
2018-09-27T00:30:34.345Z,99.90
2018-09-27T00:33:02.839Z,99.90
2018-09-27T00:35:31.347Z,99.90
2018-09-27T00:37:59.834Z,99.90
2018-09-27T00:40:28.330Z,99.90
2018-09-27T00:42:56.799Z,99.90
2018-09-27T00:45:25.271Z,99.90
2018-09-27T00:47:53.716Z,99.90
2018-09-27T00:50:22.192Z,99.90
2018-09-27T00:52:51.022Z,99.90
2018-09-27T00:55:19.562Z,99.90
2018-09-27T00:57:48.023Z,99.90
2018-09-27T01:00:16.486Z,99.90
2018-09-27T01:02:45.002Z,99.90
2018-09-27T01:05:13.493Z,99.90
2018-09-27T01:07:41.931Z,99.90
2018-09-27T01:10:10.415Z,99.90
2018-09-27T01:12:38.855Z,99.90
2018-09-27T01:15:07.540Z,99.90
2018-09-27T01:17:35.978Z,99.90
2018-09-27T01:20:04.514Z,99.90
2018-09-27T01:22:32.957Z,99.90
2018-09-27T01:25:01.432Z,99.90
2018-09-27T01:27:30.291Z,99.90
2018-09-27T01:29:58.814Z,99.90
2018-09-27T01:32:27.295Z,99.90
2018-09-27T01:34:55.782Z,99.90
2018-09-27T01:37:24.246Z,99.90
2018-09-27T01:39:58.667Z,99.90
2018-09-27T01:42:27.082Z,99.90
2018-09-27T01:44:55.522Z,99.90
2018-09-27T01:47:23.948Z,99.90
2018-09-27T01:49:52.396Z,99.90
2018-09-27T01:52:20.814Z,99.90
2018-09-27T01:54:49.258Z,99.90
2018-09-27T01:57:17.751Z,99.90
2018-09-27T01:59:46.227Z,99.90
2018-09-27T02:02:14.714Z,99.90
2018-09-27T02:04:43.160Z,99.90
2018-09-27T02:07:11.784Z,99.90
2018-09-27T02:09:40.191Z,99.90
2018-09-27T02:12:08.638Z,99.90
2018-09-27T02:14:37.223Z,99.90
2018-09-27T02:17:05.723Z,99.90
2018-09-27T02:19:34.142Z,99.90
2018-09-27T02:22:02.591Z,99.90
2018-09-27T02:24:31.017Z,99.90
2018-09-27T02:26:59.467Z,99.90
2018-09-27T02:29:27.890Z,99.90
2018-09-27T02:31:56.342Z,99.90
2018-09-27T02:34:24.770Z,99.90
2018-09-27T02:36:53.223Z,99.90
2018-09-27T02:39:21.647Z,99.90
2018-09-27T02:41:50.079Z,99.90
2018-09-27T02:44:18.487Z,99.90
2018-09-27T02:46:46.947Z,99.90
2018-09-27T02:49:15.363Z,99.90
2018-09-27T02:51:43.791Z,99.90
2018-09-27T02:54:12.215Z,99.90
2018-09-27T02:56:40.886Z,99.90
2018-09-27T02:59:09.459Z,99.90
2018-09-27T03:01:37.928Z,99.90
2018-09-27T03:04:06.855Z,99.90
2018-09-27T03:06:35.300Z,99.90
2018-09-27T03:09:04.566Z,99.90
2018-09-27T03:11:33.031Z,99.90
2018-09-27T03:14:01.475Z,99.90
2018-09-27T03:16:29.918Z,99.90
2018-09-27T03:18:58.359Z,99.90
2018-09-27T03:21:26.799Z,99.90
2018-09-27T03:23:55.270Z,99.90
2018-09-27T03:26:23.764Z,99.90
2018-09-27T03:28:52.160Z,99.90
2018-09-27T03:31:20.632Z,99.90
2018-09-27T03:33:49.071Z,99.90
2018-09-27T03:36:17.541Z,99.90
2018-09-27T03:38:46.019Z,99.90
2018-09-27T03:41:14.468Z,99.90
2018-09-27T03:43:42.984Z,99.90
2018-09-27T03:46:11.500Z,99.90
2018-09-27T03:48:39.903Z,99.90
2018-09-27T03:51:08.345Z,99.90
2018-09-27T03:53:36.828Z,99.90
2018-09-27T03:56:05.328Z,99.90
2018-09-27T03:58:33.762Z,99.90
2018-09-27T04:01:02.202Z,99.90
2018-09-27T04:03:30.661Z,99.90
2018-09-27T04:05:59.110Z,99.90
2018-09-27T04:08:27.519Z,99.90
2018-09-27T04:10:56.046Z,99.90
2018-09-27T04:13:24.510Z,99.90
2018-09-27T04:15:52.972Z,99.90
2018-09-27T04:18:21.491Z,99.90
2018-09-27T04:20:52.035Z,99.90
2018-09-27T04:23:22.806Z,99.90
2018-09-27T04:25:51.928Z,99.90
2018-09-27T04:28:21.124Z,99.90
2018-09-27T04:30:49.618Z,99.90
2018-09-27T04:33:18.082Z,99.90
2018-09-27T04:35:46.526Z,99.90
2018-09-27T04:38:14.984Z,99.90
2018-09-27T04:40:43.403Z,99.90
2018-09-27T04:43:11.850Z,99.90
2018-09-27T04:45:40.291Z,99.90
2018-09-27T04:48:08.762Z,99.90
2018-09-27T04:50:37.174Z,99.90
2018-09-27T04:53:05.627Z,99.90
2018-09-27T04:55:34.182Z,99.90
2018-09-27T04:58:02.623Z,99.90
2018-09-27T05:00:31.114Z,99.90
2018-09-27T05:02:59.567Z,99.90
2018-09-27T05:05:28.680Z,99.90
2018-09-27T05:07:57.123Z,99.90
2018-09-27T05:10:25.548Z,99.90
2018-09-27T05:12:54.007Z,99.90
2018-09-27T05:15:22.465Z,99.90
2018-09-27T05:17:50.942Z,99.90
2018-09-27T05:20:19.752Z,99.90
2018-09-27T05:22:48.260Z,99.90
2018-09-27T05:25:16.690Z,99.90
2018-09-27T05:27:45.174Z,99.90
2018-09-27T05:30:13.662Z,99.90
2018-09-27T05:32:42.143Z,99.90
2018-09-27T05:35:10.614Z,99.90
2018-09-27T05:37:39.060Z,99.90
2018-09-27T05:40:07.666Z,99.90
2018-09-27T05:42:36.140Z,99.90
2018-09-27T05:45:06.365Z,99.90
2018-09-27T05:47:34.821Z,99.90
2018-09-27T05:50:03.274Z,99.90
2018-09-27T05:52:31.767Z,99.90
2018-09-27T05:55:00.230Z,99.90
2018-09-27T05:57:28.690Z,99.90
2018-09-27T05:59:57.103Z,99.90
2018-09-27T06:02:26.115Z,99.90
2018-09-27T06:04:54.563Z,99.90
2018-09-27T06:07:23.014Z,99.90
2018-09-27T06:09:51.626Z,99.90
2018-09-27T06:12:20.057Z,99.90
2018-09-27T06:14:48.507Z,99.90
2018-09-27T06:17:17.042Z,99.90
2018-09-27T06:19:45.530Z,99.90
2018-09-27T06:22:13.934Z,99.90
2018-09-27T06:24:42.451Z,99.90
2018-09-27T06:27:10.875Z,99.90
2018-09-27T06:29:39.339Z,99.90
2018-09-27T06:32:07.778Z,99.90
2018-09-27T06:34:36.254Z,99.90
2018-09-27T06:37:04.695Z,99.90
2018-09-27T06:39:33.139Z,99.90
2018-09-27T06:42:01.588Z,99.90
2018-09-27T06:44:30.086Z,99.90
2018-09-27T06:46:58.463Z,99.90
2018-09-27T06:49:26.906Z,99.90
2018-09-27T06:51:55.354Z,99.90
2018-09-27T06:54:23.806Z,99.90
2018-09-27T06:56:52.231Z,99.90
2018-09-27T06:59:20.692Z,99.90
2018-09-27T07:01:49.128Z,99.90
2018-09-27T07:04:17.631Z,99.90
2018-09-27T07:06:46.052Z,99.90
2018-09-27T07:09:14.655Z,99.90
2018-09-27T07:11:43.083Z,99.90
2018-09-27T07:14:11.911Z,99.90
2018-09-27T07:16:40.339Z,99.90
2018-09-27T07:19:09.381Z,99.90
2018-09-27T07:21:37.816Z,99.90
2018-09-27T07:24:06.263Z,99.90
2018-09-27T07:26:34.827Z,99.90
2018-09-27T07:29:03.200Z,99.90
2018-09-27T07:31:38.503Z,99.90
2018-09-27T07:34:07.020Z,99.90
2018-09-27T07:36:35.499Z,99.90
2018-09-27T07:39:05.105Z,99.90
2018-09-27T07:41:33.561Z,99.90
2018-09-27T07:44:02.039Z,99.90
2018-09-27T07:46:30.490Z,99.90
2018-09-27T07:48:58.943Z,99.90
2018-09-27T07:51:27.372Z,99.90
2018-09-27T07:53:56.064Z,99.90
2018-09-27T07:56:24.517Z,99.90
2018-09-27T07:58:52.987Z,99.90
2018-09-27T08:01:21.798Z,99.90
2018-09-27T08:03:50.357Z,99.90
2018-09-27T08:06:18.792Z,99.90
2018-09-27T08:08:47.451Z,99.90
2018-09-27T08:11:15.963Z,99.90
2018-09-27T08:13:44.346Z,99.90
2018-09-27T08:16:12.779Z,99.90
2018-09-27T08:18:41.238Z,99.90
2018-09-27T08:21:09.769Z,99.90
2018-09-27T08:23:38.214Z,99.90
2018-09-27T08:26:06.720Z,99.90
2018-09-27T08:28:35.186Z,99.90
2018-09-27T08:31:03.657Z,99.90
2018-09-27T08:33:32.093Z,99.90
2018-09-27T08:36:00.606Z,99.90
2018-09-27T08:38:29.176Z,99.90
2018-09-27T08:40:57.560Z,99.90
2018-09-27T08:43:25.997Z,99.90
2018-09-27T08:45:54.508Z,99.90
2018-09-27T08:48:22.951Z,99.90
2018-09-27T08:50:51.407Z,99.90
2018-09-27T08:53:19.855Z,99.90
2018-09-27T08:55:48.414Z,99.90
2018-09-27T08:58:16.798Z,99.90
2018-09-27T09:00:45.287Z,99.90
2018-09-27T09:03:13.952Z,99.90
2018-09-27T09:05:42.540Z,99.90
2018-09-27T09:08:10.978Z,99.90
2018-09-27T09:10:39.438Z,99.90
2018-09-27T09:13:08.175Z,99.90
2018-09-27T09:15:36.697Z,99.90
2018-09-27T09:18:05.208Z,99.90
2018-09-27T09:20:33.672Z,99.90
2018-09-27T09:23:02.113Z,99.90
2018-09-27T09:25:30.643Z,99.90
2018-09-27T09:27:59.054Z,99.90
2018-09-27T09:30:27.553Z,99.40
2018-09-27T09:32:55.971Z,99.90
2018-09-27T09:35:24.479Z,99.60
2018-09-27T09:37:52.942Z,98.10
2018-09-27T09:40:21.451Z,98.10
2018-09-27T09:42:49.879Z,97.70
2018-09-27T09:45:18.422Z,98.20
2018-09-27T09:47:46.915Z,97.80
2018-09-27T09:50:15.389Z,96.90
2018-09-27T09:52:43.807Z,95.90
2018-09-27T09:55:12.330Z,95.60
2018-09-27T09:57:40.768Z,95.20
2018-09-27T10:00:09.333Z,93.40
2018-09-27T10:02:37.801Z,93.10
2018-09-27T10:05:06.359Z,91.20
2018-09-27T10:07:34.836Z,91.30
2018-09-27T10:10:03.323Z,89.70
2018-09-27T10:12:31.762Z,89.60
2018-09-27T10:15:00.179Z,89.00
2018-09-27T10:17:28.667Z,88.10
2018-09-27T10:19:57.167Z,88.20
2018-09-27T10:22:25.640Z,87.30
2018-09-27T10:24:54.084Z,84.40
2018-09-27T10:27:22.561Z,86.20
2018-09-27T10:29:51.020Z,83.00
2018-09-27T10:32:19.524Z,83.60
2018-09-27T10:34:47.973Z,86.00
2018-09-27T10:37:16.423Z,85.50
2018-09-27T10:39:44.858Z,82.40
2018-09-27T10:42:13.359Z,82.80
2018-09-27T10:44:41.889Z,80.20
2018-09-27T10:47:10.351Z,81.70
2018-09-27T10:49:38.796Z,80.30
2018-09-27T10:52:07.626Z,80.10
2018-09-27T10:54:36.070Z,79.60
2018-09-27T10:57:04.530Z,77.10
2018-09-27T10:59:33.006Z,76.00
2018-09-27T11:02:01.443Z,77.80
2018-09-27T11:04:29.873Z,76.80
2018-09-27T11:06:58.393Z,75.50
2018-09-27T11:09:26.840Z,77.30
2018-09-27T11:11:55.307Z,73.20
2018-09-27T11:14:23.768Z,73.10
2018-09-27T11:16:52.210Z,73.00
2018-09-27T11:19:20.640Z,71.70
2018-09-27T11:21:49.284Z,72.20
2018-09-27T11:24:17.847Z,69.60
2018-09-27T11:26:46.310Z,67.30
2018-09-27T11:29:20.236Z,68.00
2018-09-27T11:31:53.943Z,66.00
2018-09-27T11:34:22.382Z,64.10
2018-09-27T11:36:50.829Z,65.20
2018-09-27T11:39:19.282Z,64.90
2018-09-27T11:41:47.775Z,63.40
2018-09-27T11:44:16.245Z,60.30
2018-09-27T11:46:44.708Z,60.80
2018-09-27T11:49:13.236Z,59.60
2018-09-27T11:51:41.627Z,58.00
2018-09-27T11:54:10.080Z,59.00
2018-09-27T11:56:38.604Z,58.10
2018-09-27T11:59:07.079Z,58.00
2018-09-27T12:01:35.737Z,57.20
2018-09-27T12:04:04.143Z,57.50
2018-09-27T12:06:32.640Z,57.90
2018-09-27T12:09:01.125Z,57.50
2018-09-27T12:11:29.698Z,50.70
2018-09-27T12:13:58.175Z,54.30
2018-09-27T12:16:26.627Z,52.80
2018-09-27T12:18:55.087Z,51.00
2018-09-27T12:21:23.518Z,50.60
2018-09-27T12:23:52.315Z,55.00
2018-09-27T12:26:20.735Z,54.30
2018-09-27T12:28:49.195Z,53.00
2018-09-27T12:31:17.733Z,54.30
2018-09-27T12:33:46.233Z,53.90
2018-09-27T12:36:14.691Z,55.60
2018-09-27T12:38:43.163Z,56.20
2018-09-27T12:41:11.919Z,56.30
2018-09-27T12:43:40.379Z,56.80
2018-09-27T12:46:09.307Z,56.10
2018-09-27T12:48:37.872Z,56.60
2018-09-27T12:51:06.364Z,59.30
2018-09-27T12:53:34.752Z,54.30
2018-09-27T12:56:03.192Z,54.50
2018-09-27T12:58:31.688Z,54.80
2018-09-27T13:01:00.162Z,54.30
2018-09-27T13:03:28.615Z,52.80
2018-09-27T13:05:57.058Z,53.80
2018-09-27T13:08:25.588Z,53.70
2018-09-27T13:10:53.992Z,53.60
2018-09-27T13:13:22.622Z,52.70
2018-09-27T13:15:51.116Z,52.10
2018-09-27T13:18:19.548Z,52.20
2018-09-27T13:20:48.020Z,51.60
2018-09-27T13:23:16.497Z,50.30
2018-09-27T13:25:45.095Z,50.10
2018-09-27T13:28:13.494Z,50.20
2018-09-27T13:30:41.911Z,50.60
2018-09-27T13:33:10.354Z,48.50
2018-09-27T13:35:38.802Z,48.10
2018-09-27T13:38:07.384Z,49.20
2018-09-27T13:40:35.943Z,45.70
2018-09-27T13:43:04.394Z,47.20
2018-09-27T13:45:32.856Z,45.80
2018-09-27T13:48:01.328Z,47.40
2018-09-27T13:50:29.795Z,44.20
2018-09-27T13:52:58.242Z,45.50
2018-09-27T13:55:26.722Z,45.10
2018-09-27T13:57:55.188Z,45.40
2018-09-27T14:00:23.703Z,44.30
2018-09-27T14:02:52.283Z,43.40
2018-09-27T14:05:20.795Z,43.60
2018-09-27T14:07:49.190Z,42.20
2018-09-27T14:10:17.654Z,42.00
2018-09-27T14:12:46.075Z,41.00
2018-09-27T14:15:14.533Z,41.00
2018-09-27T14:17:42.983Z,42.80
2018-09-27T14:20:11.501Z,41.30
2018-09-27T14:22:40.511Z,43.20
2018-09-27T14:25:08.976Z,40.70
2018-09-27T14:27:37.413Z,40.10
2018-09-27T14:30:05.972Z,40.30
2018-09-27T14:32:34.412Z,41.00
2018-09-27T14:35:02.995Z,43.00
2018-09-27T14:37:31.618Z,43.70
2018-09-27T14:40:00.137Z,43.40
2018-09-27T14:42:28.589Z,42.00
2018-09-27T14:44:57.295Z,41.70
2018-09-27T14:47:25.726Z,41.00
2018-09-27T14:49:54.203Z,42.20
2018-09-27T14:52:22.625Z,40.10
2018-09-27T14:54:51.130Z,42.00
2018-09-27T14:57:19.571Z,42.90
2018-09-27T14:59:48.037Z,43.60
2018-09-27T15:02:16.591Z,43.30
2018-09-27T15:04:45.035Z,42.60
2018-09-27T15:07:13.435Z,42.80
2018-09-27T15:09:41.931Z,42.70
2018-09-27T15:15:12.435Z,44.30
2018-09-27T15:17:40.881Z,42.70
2018-09-27T15:20:09.616Z,44.30
2018-09-27T15:22:38.117Z,44.10
2018-09-27T15:25:06.627Z,43.50
2018-09-27T15:27:35.439Z,43.90
2018-09-27T15:30:04.455Z,44.20
2018-09-27T15:32:33.038Z,44.00
2018-09-27T15:35:01.583Z,44.30
2018-09-27T15:37:30.091Z,45.00
2018-09-27T15:39:58.552Z,44.50
2018-09-27T15:42:27.526Z,45.80
2018-09-27T15:44:56.299Z,46.50
2018-09-27T15:47:25.038Z,45.00
2018-09-27T15:49:53.507Z,46.40
2018-09-27T15:52:21.931Z,47.30
2018-09-27T15:54:50.670Z,46.60
2018-09-27T15:57:19.362Z,47.50
2018-09-27T15:59:48.418Z,46.40
2018-09-27T16:02:19.873Z,45.60
2018-09-27T16:04:48.385Z,46.00
2018-09-27T16:07:16.857Z,47.40
2018-09-27T16:09:45.587Z,48.40
2018-09-27T16:12:14.094Z,48.90
2018-09-27T16:14:42.906Z,49.40
2018-09-27T16:17:11.445Z,50.30
2018-09-27T16:19:40.243Z,51.00
2018-09-27T16:22:08.780Z,50.90
2018-09-27T16:24:37.207Z,51.40
2018-09-27T16:27:06.094Z,52.00
2018-09-27T16:29:34.882Z,52.80
2018-09-27T16:32:03.355Z,53.10
2018-09-27T16:34:31.842Z,54.40
2018-09-27T16:37:00.340Z,55.90
2018-09-27T16:39:28.776Z,56.10
2018-09-27T16:41:57.598Z,56.80
2018-09-27T16:44:26.672Z,57.60
2018-09-27T16:46:55.509Z,58.90
2018-09-27T16:49:24.129Z,59.70
2018-09-27T16:51:52.569Z,60.30
2018-09-27T16:54:21.332Z,60.30
2018-09-27T16:56:49.787Z,61.10
2018-09-27T16:59:18.280Z,63.20
2018-09-27T17:01:46.790Z,64.20
2018-09-27T17:04:15.255Z,66.00
2018-09-27T17:06:43.700Z,66.90
2018-09-27T17:09:12.731Z,68.40
2018-09-27T17:11:41.179Z,69.80
2018-09-27T17:14:09.636Z,71.40
2018-09-27T17:16:38.167Z,72.70
2018-09-27T17:19:06.792Z,73.90
2018-09-27T17:21:35.264Z,75.50
2018-09-27T17:24:03.698Z,76.60
2018-09-27T17:26:32.471Z,76.80
2018-09-27T17:29:00.934Z,78.60
2018-09-27T17:31:29.405Z,80.80
2018-09-27T17:33:57.893Z,83.10
2018-09-27T17:36:26.440Z,85.80
2018-09-27T17:38:54.856Z,88.20
2018-09-27T17:41:23.346Z,88.80
2018-09-27T17:43:51.837Z,91.00
2018-09-27T17:46:21.383Z,91.70
2018-09-27T17:48:50.898Z,92.60
2018-09-27T17:51:19.376Z,93.30
2018-09-27T17:53:48.040Z,93.50
2018-09-27T17:56:16.546Z,93.80
2018-09-27T17:58:45.628Z,94.60
2018-09-27T18:01:14.016Z,95.30
2018-09-27T18:03:42.438Z,95.90
2018-09-27T18:06:10.911Z,96.40
2018-09-27T18:08:39.696Z,97.20
2018-09-27T18:11:08.222Z,98.00
2018-09-27T18:13:36.781Z,98.60
2018-09-27T18:16:05.344Z,99.10
2018-09-27T18:18:34.267Z,99.40
2018-09-27T18:21:02.809Z,99.50
2018-09-27T18:23:31.285Z,99.90
2018-09-27T18:26:00.040Z,99.90
2018-09-27T18:28:28.775Z,99.90
2018-09-27T18:30:57.262Z,99.90
2018-09-27T18:33:25.758Z,99.90
2018-09-27T18:35:54.240Z,99.90
2018-09-27T18:38:22.686Z,99.90
2018-09-27T18:40:51.159Z,99.90
2018-09-27T18:43:19.840Z,99.90
2018-09-27T18:45:48.318Z,99.90
2018-09-27T18:48:17.030Z,99.90
2018-09-27T18:50:45.467Z,99.90
2018-09-27T18:53:14.363Z,99.90
2018-09-27T18:55:43.123Z,99.90
2018-09-27T18:58:11.544Z,99.90
2018-09-27T19:00:40.013Z,99.90
2018-09-27T19:03:08.442Z,99.90
2018-09-27T19:05:37.018Z,99.90
2018-09-27T19:08:05.540Z,99.90
2018-09-27T19:10:34.031Z,99.90
2018-09-27T19:13:02.947Z,99.90
2018-09-27T19:15:31.396Z,99.90
2018-09-27T19:18:00.083Z,99.90
2018-09-27T19:20:28.527Z,99.90
2018-09-27T19:22:56.935Z,99.90
2018-09-27T19:25:25.386Z,99.90
2018-09-27T19:27:53.857Z,99.90
2018-09-27T19:30:23.367Z,99.90
2018-09-27T19:32:51.839Z,99.90
2018-09-27T19:35:20.883Z,99.90
2018-09-27T19:37:49.710Z,99.90
2018-09-27T19:40:18.139Z,99.90
2018-09-27T19:42:46.872Z,99.90
2018-09-27T19:45:15.342Z,99.90
2018-09-27T19:47:43.779Z,99.90
2018-09-27T19:50:12.778Z,99.90
2018-09-27T19:52:41.240Z,99.90
2018-09-27T19:55:09.676Z,99.90
2018-09-27T19:57:38.119Z,99.90
2018-09-27T20:00:06.711Z,99.90
2018-09-27T20:02:35.167Z,99.90
2018-09-27T20:05:03.602Z,99.90
2018-09-27T20:07:32.334Z,99.90
2018-09-27T20:10:01.007Z,99.90
2018-09-27T20:12:29.691Z,99.90
2018-09-27T20:14:58.159Z,99.90
2018-09-27T20:17:26.622Z,99.90
2018-09-27T20:19:55.048Z,99.90
2018-09-27T20:22:23.885Z,99.90
2018-09-27T20:24:52.547Z,99.90
2018-09-27T20:27:21.387Z,99.90
2018-09-27T20:29:49.856Z,99.90
2018-09-27T20:32:18.298Z,99.90
2018-09-27T20:34:46.788Z,99.90
2018-09-27T20:37:15.261Z,99.90
2018-09-27T20:39:43.709Z,99.90
2018-09-27T20:42:12.171Z,99.90
2018-09-27T20:44:40.611Z,99.90
2018-09-27T20:47:09.099Z,99.90
2018-09-27T20:49:37.592Z,99.90
2018-09-27T20:52:06.090Z,99.90
2018-09-27T20:54:34.539Z,99.90
2018-09-27T20:57:03.019Z,99.90
2018-09-27T20:59:31.504Z,99.90
2018-09-27T21:01:59.983Z,99.90
2018-09-27T21:04:28.811Z,99.90
2018-09-27T21:06:57.283Z,99.90
2018-09-27T21:09:26.018Z,99.90
2018-09-27T21:11:54.523Z,99.90
2018-09-27T21:14:22.990Z,99.90
2018-09-27T21:16:51.461Z,99.90
2018-09-27T21:19:19.976Z,99.90
2018-09-27T21:21:48.402Z,99.90
2018-09-27T21:24:16.864Z,99.90
2018-09-27T21:26:45.367Z,99.90
2018-09-27T21:29:13.818Z,99.90
2018-09-27T21:31:42.374Z,99.90
2018-09-27T21:34:11.135Z,99.90
2018-09-27T21:36:39.708Z,99.90
2018-09-27T21:39:08.451Z,99.90
2018-09-27T21:41:36.932Z,99.90
2018-09-27T21:44:05.615Z,99.90
2018-09-27T21:46:34.120Z,99.90
2018-09-27T21:49:02.591Z,99.90
2018-09-27T21:51:31.049Z,99.90
2018-09-27T21:53:59.511Z,99.90
2018-09-27T21:56:27.974Z,99.90
2018-09-27T21:58:56.408Z,99.90
2018-09-27T22:01:24.947Z,99.90
2018-09-27T22:03:53.408Z,99.90
2018-09-27T22:06:21.835Z,99.90
2018-09-27T22:08:50.306Z,99.90
2018-09-27T22:11:18.796Z,99.90
2018-09-27T22:13:47.286Z,99.90
2018-09-27T22:16:15.723Z,99.90
2018-09-27T22:18:44.468Z,99.90
2018-09-27T22:21:12.926Z,99.90
2018-09-27T22:23:41.389Z,99.90
2018-09-27T22:26:09.814Z,99.90
2018-09-27T22:28:38.315Z,99.90
2018-09-27T22:31:07.135Z,99.90
2018-09-27T22:33:35.620Z,99.90
2018-09-27T22:36:04.114Z,99.90
2018-09-27T22:38:32.620Z,99.90
2018-09-27T22:41:01.106Z,99.90
2018-09-27T22:43:29.565Z,99.90
2018-09-27T22:45:58.019Z,99.90
2018-09-27T22:48:26.487Z,99.90
2018-09-27T22:50:54.946Z,99.90
2018-09-27T22:53:23.431Z,99.90
2018-09-27T22:55:51.891Z,99.90
2018-09-27T22:58:20.350Z,99.90
2018-09-27T23:00:48.804Z,99.90
2018-09-27T23:03:17.403Z,99.90
2018-09-27T23:05:45.874Z,99.90
2018-09-27T23:08:14.337Z,99.90
2018-09-27T23:10:42.820Z,99.90
2018-09-27T23:13:11.308Z,99.90
2018-09-27T23:15:39.754Z,99.90
2018-09-27T23:18:08.353Z,99.90
2018-09-27T23:20:36.812Z,99.90
2018-09-27T23:23:05.326Z,99.90
2018-09-27T23:25:33.770Z,99.90
2018-09-27T23:28:02.236Z,99.90
2018-09-27T23:30:30.700Z,99.90
2018-09-27T23:32:59.151Z,99.90
2018-09-27T23:35:27.614Z,99.90
2018-09-27T23:37:56.067Z,99.90
2018-09-27T23:40:24.502Z,99.90
2018-09-27T23:42:52.958Z,99.90
2018-09-27T23:45:21.439Z,99.90
2018-09-27T23:47:49.942Z,99.90
2018-09-27T23:50:18.418Z,99.90
2018-09-27T23:52:46.879Z,99.90
2018-09-27T23:55:15.346Z,99.90
2018-09-27T23:57:43.821Z,99.90
